UIL Airport (Quillayute) Information

FAA: UIL - ICAO: KUIL

UIL Airport Location

State Washington
County Clallam
City Quillayute
UIL Airport is 7 miles east of Quillayute, WA.
Latitude 47-56-11.7000N
Longitude 124-33-45.4810W
Elevation 193ft

KUIL Airport METARs

METAR KUIL 200453Z AUTO 00000KT 10SM BKN095 OVC120 10/08 A2961 RMK AO2 RAE16 SLP027 P0000 T01000078
Altimeter 29.61"
Temperature 10.0°C (50.0°F)
Wind 0° at 0KT
Clouds broken at 9,500ft overcast at 12,000ft
Visibility 10.0mi
Time observed: 2021-10-20T04:53:00Z

UIL Airport Details

Status Operational
Activation September 1943
Ownership Public
Usage Public
Chart SEATTLE
ATC on-site No
Beacon schedule N/A
Beacon color N/A

UIL Airport Contacts

Owner CITY OF FORKS
Owner address 500 EAST DIVISION ST., FORKS, WA 98331
Owner phone 360-374-5412
Manager D A HANSON & ROGER DYE
Manager address RT 1, BOX 99, POMEROY, WA 99347
Manager phone 509-843-3591

UIL Airport (Quillayute) Radio Frequencies

UIL (Airport) Radio Frequencies

UNICOM N/A
Common traffic advisory frequency (CTAF) 122.9